الصفحة الرئيسية
METAR-TAF:

METAR-TAF

مطار :

مطار كوالالمبور الدولي

كوالالمبور, ماليزيا

دائرة عرض: 02-44N, خط طول: 101-42E, ارتفاع: 21 متر

مراقبة الطقس الحالي

تاريخ ووقت الإصدار 26 دقيقة قبل الساعة 23:30UTC
ريح 2 عقدةمن اتجاهات متغيرة
درجة الحرارة 27°درجة مئوية
الرطوبة 89%
ضغط 1008 hPa
الرؤية: 9000 متر
غيوم قليلة على ارتفاع 1000 قدم

METAR: WMKK 282330Z VRB02KT 9000 FEW010 27/25 Q1008 NOSIG

زمن: 07:56 (23:56 UTC)

توقعات

تاريخ ووقت الإصدار 56 دقيقة قبل الساعة 23:00UTC
التوقعات صالحة من29 الساعة 00 UTC إلى 30 الساعة 06 UTC
ريح 2 عقدةمن اتجاهات متغيرة
الرؤية 10 كم أو أكثر
غيوم قليلة على ارتفاع 1800 قدم
نظرية الاحتمالات 30% :
مؤقت
من 29 الساعة 06 UTC إلى 29 الساعة 10 UTC
الرؤية: 4000 متر
غيوم قليلة على ارتفاع 1700 قدم, مزنة ركامية.
غيوم متفرقة على ارتفاع 2000 قدم
عاصفة رعدية, مطر,

TAF: WMKK 282300Z 2900/3006 VRB02KT 9999 FEW018 PROB30 TEMPO 2906/2910 4000 TSRA FEW017CB SCT020

أرصاد الطقس والتوقعات من أكثر من 4000 مطار (تقارير الطقس للمطار METAR والتنبؤ بالطقس بالمطارTAF).

المحطات المتاحة هي النقط الصفراء والحمراء على الخريطة.

حرك المؤشر فوق النقطة لمعرفة اسم المحطة.

ثم انقر لمعرفة أرصاد وتوقعات الطقس.

لتغيير الخارطة: اضغط على الأزرار الخضراء مع رمز الصليب الأسود للتكبير. على الزر الأخضر مع شرطة للتصغير، أو على الأسهم الخضراء للخرائط المجاورة.


METAR-TAF: